الصفحة الرئيسية
METAR-TAF:

METAR-TAF

مطار :

Lismore, أستراليا

دائرة عرض: 28-49-41S, خط طول: 153-15-36E, ارتفاع: 11 متر

مراقبة الطقس الحالي

تاريخ ووقت الإصدار 1ساعة و 13 دقيقة قبل الساعة 15:00UTC
ريح 3 عقدة من الشمال/الشمال الغربي
درجة الحرارة 12°درجة مئوية
الرطوبة 62%
ضغط 1015 hPa
الرؤية 10 كم أو أكثر

METAR: YLIS 221500Z AUTO 33003KT 9999 // NCD 12/05 Q1015

زمن: 02:13 (16:13 UTC)


TAF: مفقودة

أرصاد الطقس والتوقعات من أكثر من 4000 مطار (تقارير الطقس للمطار METAR والتنبؤ بالطقس بالمطارTAF).

المحطات المتاحة هي النقط الصفراء والحمراء على الخريطة.

حرك المؤشر فوق النقطة لمعرفة اسم المحطة.

ثم انقر لمعرفة أرصاد وتوقعات الطقس.

لتغيير الخارطة: اضغط على الأزرار الخضراء مع رمز الصليب الأسود للتكبير. على الزر الأخضر مع شرطة للتصغير، أو على الأسهم الخضراء للخرائط المجاورة.


METAR-TAF: